Cumberland Center, ME (04021)

3:03 PM EDT on July 23, 2017 (GMT -0400)
Lawn Avenue | | Change Station
Active Advisory: Coastal Flood Advisory Active Notice: Coastal Flood Advisory

Elev 187 ft 43.80 °N, 70.26 °W | Updated 13 seconds ago

Partly Cloudy
Partly Cloudy
76.5 °F
Feels Like 78 °F
N
0.0
Wind Variable Wind from SE

Today
High -- | Low -- °F
--% Chance of Precip.
Yesterday
High -- | Low -- °F
Precip. -- in
Pressure 29.89 in
Visibility 10.0 miles
Clouds Scattered Clouds 12000 ft
Mostly Cloudy 20000 ft
Heat Index 78 °F
Dew Point 55 °F
Humidity 48%
Rainfall 0.00 in
Snow Depth Not available.
5:20 AM 8:13 PM
New Moon, 0% visible
METAR KPWM 231851Z 17008KT 10SM SCT120 BKN200 21/06 A2989 RMK AO2 SLP122 T02110056 $
Pressure 29.89 in
Visibility 10.0 miles
Clouds Scattered Clouds 12000 ft
Mostly Cloudy 20000 ft
Heat Index 78 °F
Dew Point 55 °F
Humidity 48%
Rainfall 0.00 in
Snow Depth Not available.
5:20 AM 8:13 PM
New Moon, 0% visible
METAR KPWM 231851Z 17008KT 10SM SCT120 BKN200 21/06 A2989 RMK AO2 SLP122 T02110056 $

Get Your Daily Forecast Email!

Thanks for signing up!

Be on the lookout for a verification email in your inbox.

You'll start receiving severe weather alerts in your inbox..

×

10-Day Weather Forecast

Almanac

Astronomy

Jul. 23, 2017 Rise Set
Actual Time
Civil Twilight
Nautical Twilight
Astronomical Twilight
Moon
Length of Visible Light
Length of Day
Tomorrow will be .
, % of the Moon is Illuminated

Today's Extremes

State Highs State Lows

Community

WunderPhotos

Category 6

Welcome to Category 6. This is the collective home for Weather Underground's featured writeups by Dr. Jeff Masters (right), Bob Henson (left), Chris Burt, and other regular contributors.

Nearby

Air Quality

  Air Quality AQ Index Pollutant
Not available.

Snow Depth

Station Depth Elevation

Earthquake Activity

City Distance Mag. Time & Date
Minimum magnitude displayed is 2.5.

Coastal Water Temperatures

Place Temperature

Stations

Nearby Weather Stations

Station Location Temp. Windchill Dew Point Humidity Wind Precip. Elev Updated Type
                   

Watches & Warnings

Coastal Flood Advisory
Issued: 12:52 PM EDT Jul. 23, 2017 – National Weather Service

... Coastal flood advisory in effect from 11 PM this evening to
1 am EDT Monday...

The National Weather Service in gray has issued a coastal flood
advisory... which is in effect from 11 PM this evening to 1 am EDT
Monday.

* Location... Portland Maine to Hampton New Hampshire.

* Coastal flooding... minor near the time of high tide.

* Timing... around midnight tonight.

Precautionary/preparedness actions...

A coastal flood advisory indicates that onshore winds and tides
will combine to generate flooding of low areas along the shore.


Jc